sensor_id;sensor_type;location;lat;lon;timestamp;P1;durP1;ratioP1;P2;durP2;ratioP2
9597;SDS011;4837;50.890;4.724;2023-03-31T00:01:34;12.55;;;2.70;;
9597;SDS011;4837;50.890;4.724;2023-03-31T00:04:00;10.43;;;3.45;;
9597;SDS011;4837;50.890;4.724;2023-03-31T00:06:30;10.25;;;2.92;;
9597;SDS011;4837;50.890;4.724;2023-03-31T00:09:02;16.83;;;3.30;;
9597;SDS011;4837;50.890;4.724;2023-03-31T00:11:28;8.20;;;2.55;;
9597;SDS011;4837;50.890;4.724;2023-03-31T00:13:54;15.20;;;2.90;;
9597;SDS011;4837;50.890;4.724;2023-03-31T00:16:20;11.13;;;2.72;;
9597;SDS011;4837;50.890;4.724;2023-03-31T00:18:47;13.10;;;3.45;;
9597;SDS011;4837;50.890;4.724;2023-03-31T00:21:15;14.82;;;3.55;;
9597;SDS011;4837;50.890;4.724;2023-03-31T00:23:58;9.65;;;2.97;;
9597;SDS011;4837;50.890;4.724;2023-03-31T00:26:25;7.50;;;2.50;;
9597;SDS011;4837;50.890;4.724;2023-03-31T00:28:52;11.93;;;2.72;;
9597;SDS011;4837;50.890;4.724;2023-03-31T00:31:19;14.68;;;3.47;;
9597;SDS011;4837;50.890;4.724;2023-03-31T00:33:46;14.73;;;2.92;;
9597;SDS011;4837;50.890;4.724;2023-03-31T00:36:12;13.50;;;2.90;;
9597;SDS011;4837;50.890;4.724;2023-03-31T00:38:45;14.25;;;3.55;;
9597;SDS011;4837;50.890;4.724;2023-03-31T00:41:12;18.10;;;3.13;;
9597;SDS011;4837;50.890;4.724;2023-03-31T00:43:38;16.40;;;3.03;;
9597;SDS011;4837;50.890;4.724;2023-03-31T00:48:41;16.17;;;3.20;;
9597;SDS011;4837;50.890;4.724;2023-03-31T00:51:10;10.55;;;3.10;;
9597;SDS011;4837;50.890;4.724;2023-03-31T00:53:36;11.38;;;3.08;;
9597;SDS011;4837;50.890;4.724;2023-03-31T00:56:08;18.60;;;4.18;;
9597;SDS011;4837;50.890;4.724;2023-03-31T00:58:36;15.38;;;3.55;;
9597;SDS011;4837;50.890;4.724;2023-03-31T01:01:07;9.65;;;3.20;;
9597;SDS011;4837;50.890;4.724;2023-03-31T01:03:35;14.13;;;2.90;;
9597;SDS011;4837;50.890;4.724;2023-03-31T01:06:03;13.18;;;3.10;;
9597;SDS011;4837;50.890;4.724;2023-03-31T01:08:31;11.65;;;3.13;;
9597;SDS011;4837;50.890;4.724;2023-03-31T01:11:01;10.35;;;2.70;;
9597;SDS011;4837;50.890;4.724;2023-03-31T01:13:28;17.92;;;3.08;;
9597;SDS011;4837;50.890;4.724;2023-03-31T01:15:55;11.73;;;3.03;;
9597;SDS011;4837;50.890;4.724;2023-03-31T01:18:22;14.43;;;3.30;;
9597;SDS011;4837;50.890;4.724;2023-03-31T01:24:29;11.15;;;3.17;;
9597;SDS011;4837;50.890;4.724;2023-03-31T01:46:52;11.43;;;3.22;;
9597;SDS011;4837;50.890;4.724;2023-03-31T01:49:38;11.90;;;2.45;;
9597;SDS011;4837;50.890;4.724;2023-03-31T01:52:07;12.73;;;2.47;;
9597;SDS011;4837;50.890;4.724;2023-03-31T01:57:30;7.53;;;2.38;;
9597;SDS011;4837;50.890;4.724;2023-03-31T02:00:00;10.65;;;2.42;;
9597;SDS011;4837;50.890;4.724;2023-03-31T02:02:28;9.10;;;2.72;;
9597;SDS011;4837;50.890;4.724;2023-03-31T02:05:01;8.57;;;2.58;;
9597;SDS011;4837;50.890;4.724;2023-03-31T02:07:32;9.05;;;2.70;;
9597;SDS011;4837;50.890;4.724;2023-03-31T02:10:00;10.63;;;2.55;;
9597;SDS011;4837;50.890;4.724;2023-03-31T02:12:29;9.70;;;2.75;;
9597;SDS011;4837;50.890;4.724;2023-03-31T02:14:56;11.68;;;2.40;;
9597;SDS011;4837;50.890;4.724;2023-03-31T02:17:24;9.00;;;2.75;;
9597;SDS011;4837;50.890;4.724;2023-03-31T02:20:02;8.10;;;2.25;;
9597;SDS011;4837;50.890;4.724;2023-03-31T02:22:31;7.00;;;2.00;;
9597;SDS011;4837;50.890;4.724;2023-03-31T02:24:58;10.50;;;2.08;;
9597;SDS011;4837;50.890;4.724;2023-03-31T02:27:36;11.18;;;1.75;;
9597;SDS011;4837;50.890;4.724;2023-03-31T02:30:04;8.57;;;2.10;;
9597;SDS011;4837;50.890;4.724;2023-03-31T02:32:33;6.53;;;1.88;;
9597;SDS011;4837;50.890;4.724;2023-03-31T02:35:00;7.72;;;1.83;;
9597;SDS011;4837;50.890;4.724;2023-03-31T02:37:27;5.53;;;1.70;;
9597;SDS011;4837;50.890;4.724;2023-03-31T02:39:54;6.00;;;1.45;;
9597;SDS011;4837;50.890;4.724;2023-03-31T02:42:21;9.48;;;1.85;;
9597;SDS011;4837;50.890;4.724;2023-03-31T02:44:47;6.00;;;1.83;;
9597;SDS011;4837;50.890;4.724;2023-03-31T02:47:14;5.50;;;1.42;;
9597;SDS011;4837;50.890;4.724;2023-03-31T02:49:44;7.95;;;1.60;;
9597;SDS011;4837;50.890;4.724;2023-03-31T02:55:15;5.55;;;1.88;;
9597;SDS011;4837;50.890;4.724;2023-03-31T03:00:51;7.88;;;2.10;;
9597;SDS011;4837;50.890;4.724;2023-03-31T03:05:52;5.07;;;1.70;;
9597;SDS011;4837;50.890;4.724;2023-03-31T03:16:01;8.40;;;2.00;;
9597;SDS011;4837;50.890;4.724;2023-03-31T03:18:29;8.20;;;1.70;;
9597;SDS011;4837;50.890;4.724;2023-03-31T03:20:55;5.78;;;1.95;;
9597;SDS011;4837;50.890;4.724;2023-03-31T03:23:22;7.40;;;2.13;;
9597;SDS011;4837;50.890;4.724;2023-03-31T03:25:48;7.80;;;1.80;;
9597;SDS011;4837;50.890;4.724;2023-03-31T03:28:15;8.00;;;2.00;;
9597;SDS011;4837;50.890;4.724;2023-03-31T03:30:41;6.57;;;1.73;;
9597;SDS011;4837;50.890;4.724;2023-03-31T03:33:07;4.97;;;1.48;;
9597;SDS011;4837;50.890;4.724;2023-03-31T03:35:33;6.07;;;1.65;;
9597;SDS011;4837;50.890;4.724;2023-03-31T03:38:00;7.15;;;2.00;;
9597;SDS011;4837;50.890;4.724;2023-03-31T03:40:26;8.20;;;1.73;;
9597;SDS011;4837;50.890;4.724;2023-03-31T03:42:52;6.38;;;1.98;;
9597;SDS011;4837;50.890;4.724;2023-03-31T03:45:18;8.55;;;1.67;;
9597;SDS011;4837;50.890;4.724;2023-03-31T03:47:44;6.80;;;1.75;;
9597;SDS011;4837;50.890;4.724;2023-03-31T03:50:10;8.98;;;1.83;;
9597;SDS011;4837;50.890;4.724;2023-03-31T03:52:38;9.13;;;1.95;;
9597;SDS011;4837;50.890;4.724;2023-03-31T03:55:04;10.15;;;1.92;;
9597;SDS011;4837;50.890;4.724;2023-03-31T03:57:30;7.95;;;2.00;;
9597;SDS011;4837;50.890;4.724;2023-03-31T03:59:56;7.28;;;2.03;;
9597;SDS011;4837;50.890;4.724;2023-03-31T04:02:23;8.95;;;1.98;;
9597;SDS011;4837;50.890;4.724;2023-03-31T04:04:49;5.63;;;2.30;;
9597;SDS011;4837;50.890;4.724;2023-03-31T04:07:15;6.40;;;1.92;;
9597;SDS011;4837;50.890;4.724;2023-03-31T04:09:41;7.60;;;1.92;;
9597;SDS011;4837;50.890;4.724;2023-03-31T04:12:07;7.63;;;2.13;;
9597;SDS011;4837;50.890;4.724;2023-03-31T04:14:33;13.68;;;2.50;;
9597;SDS011;4837;50.890;4.724;2023-03-31T04:16:59;9.45;;;2.30;;
9597;SDS011;4837;50.890;4.724;2023-03-31T04:19:26;9.07;;;2.30;;
9597;SDS011;4837;50.890;4.724;2023-03-31T04:21:52;10.23;;;2.30;;
9597;SDS011;4837;50.890;4.724;2023-03-31T04:24:26;6.18;;;1.77;;
9597;SDS011;4837;50.890;4.724;2023-03-31T04:26:57;7.03;;;1.67;;
9597;SDS011;4837;50.890;4.724;2023-03-31T04:29:23;7.45;;;1.90;;
9597;SDS011;4837;50.890;4.724;2023-03-31T04:31:51;7.45;;;2.05;;
9597;SDS011;4837;50.890;4.724;2023-03-31T04:34:18;7.55;;;2.20;;
9597;SDS011;4837;50.890;4.724;2023-03-31T04:36:46;6.45;;;2.05;;
9597;SDS011;4837;50.890;4.724;2023-03-31T04:39:13;6.15;;;1.83;;
9597;SDS011;4837;50.890;4.724;2023-03-31T04:41:40;7.10;;;1.90;;
9597;SDS011;4837;50.890;4.724;2023-03-31T04:44:06;6.45;;;2.28;;
9597;SDS011;4837;50.890;4.724;2023-03-31T04:46:33;7.90;;;2.40;;
9597;SDS011;4837;50.890;4.724;2023-03-31T04:48:59;7.05;;;2.20;;
9597;SDS011;4837;50.890;4.724;2023-03-31T04:51:26;7.40;;;2.00;;
9597;SDS011;4837;50.890;4.724;2023-03-31T04:53:53;8.13;;;2.40;;
9597;SDS011;4837;50.890;4.724;2023-03-31T04:56:19;6.97;;;1.88;;
9597;SDS011;4837;50.890;4.724;2023-03-31T04:58:46;9.10;;;2.20;;
9597;SDS011;4837;50.890;4.724;2023-03-31T05:01:13;8.30;;;1.80;;
9597;SDS011;4837;50.890;4.724;2023-03-31T05:03:42;10.05;;;2.50;;
9597;SDS011;4837;50.890;4.724;2023-03-31T05:06:08;8.43;;;1.88;;
9597;SDS011;4837;50.890;4.724;2023-03-31T05:08:35;12.73;;;2.40;;
9597;SDS011;4837;50.890;4.724;2023-03-31T05:11:04;13.02;;;2.65;;
9597;SDS011;4837;50.890;4.724;2023-03-31T05:13:31;9.23;;;2.30;;
9597;SDS011;4837;50.890;4.724;2023-03-31T05:15:57;6.28;;;2.38;;
9597;SDS011;4837;50.890;4.724;2023-03-31T05:18:23;7.43;;;1.95;;
9597;SDS011;4837;50.890;4.724;2023-03-31T05:20:50;11.07;;;2.60;;
9597;SDS011;4837;50.890;4.724;2023-03-31T05:23:16;10.80;;;2.53;;
9597;SDS011;4837;50.890;4.724;2023-03-31T05:25:42;7.50;;;2.28;;
9597;SDS011;4837;50.890;4.724;2023-03-31T05:28:08;11.05;;;2.40;;
9597;SDS011;4837;50.890;4.724;2023-03-31T05:30:34;8.57;;;2.42;;
9597;SDS011;4837;50.890;4.724;2023-03-31T05:33:00;7.35;;;2.10;;
9597;SDS011;4837;50.890;4.724;2023-03-31T05:35:26;13.80;;;3.08;;
9597;SDS011;4837;50.890;4.724;2023-03-31T05:37:54;6.80;;;2.30;;
9597;SDS011;4837;50.890;4.724;2023-03-31T05:40:20;9.52;;;2.60;;
9597;SDS011;4837;50.890;4.724;2023-03-31T05:42:46;8.38;;;2.50;;
9597;SDS011;4837;50.890;4.724;2023-03-31T05:45:12;9.80;;;2.55;;
9597;SDS011;4837;50.890;4.724;2023-03-31T05:47:38;9.30;;;3.17;;
9597;SDS011;4837;50.890;4.724;2023-03-31T05:50:05;9.80;;;2.97;;
9597;SDS011;4837;50.890;4.724;2023-03-31T05:52:33;7.75;;;2.10;;
9597;SDS011;4837;50.890;4.724;2023-03-31T05:54:59;9.45;;;2.58;;
9597;SDS011;4837;50.890;4.724;2023-03-31T05:57:25;11.57;;;2.70;;
9597;SDS011;4837;50.890;4.724;2023-03-31T05:59:51;9.30;;;2.70;;
9597;SDS011;4837;50.890;4.724;2023-03-31T06:02:17;11.27;;;2.88;;
9597;SDS011;4837;50.890;4.724;2023-03-31T06:04:43;9.00;;;2.53;;
9597;SDS011;4837;50.890;4.724;2023-03-31T06:07:09;10.57;;;2.78;;
9597;SDS011;4837;50.890;4.724;2023-03-31T06:09:35;9.15;;;2.80;;
9597;SDS011;4837;50.890;4.724;2023-03-31T06:12:02;9.63;;;2.75;;
9597;SDS011;4837;50.890;4.724;2023-03-31T06:14:28;6.85;;;2.60;;
9597;SDS011;4837;50.890;4.724;2023-03-31T06:16:55;9.85;;;2.90;;
9597;SDS011;4837;50.890;4.724;2023-03-31T06:19:21;10.95;;;2.90;;
9597;SDS011;4837;50.890;4.724;2023-03-31T06:21:48;10.75;;;2.55;;
9597;SDS011;4837;50.890;4.724;2023-03-31T06:24:15;10.98;;;2.75;;
9597;SDS011;4837;50.890;4.724;2023-03-31T06:26:41;11.88;;;2.88;;
9597;SDS011;4837;50.890;4.724;2023-03-31T06:29:07;10.20;;;3.03;;
9597;SDS011;4837;50.890;4.724;2023-03-31T06:31:33;10.65;;;2.53;;
9597;SDS011;4837;50.890;4.724;2023-03-31T06:34:00;14.35;;;4.18;;
9597;SDS011;4837;50.890;4.724;2023-03-31T06:36:26;10.90;;;3.22;;
9597;SDS011;4837;50.890;4.724;2023-03-31T06:38:53;11.23;;;3.17;;
9597;SDS011;4837;50.890;4.724;2023-03-31T06:41:19;7.35;;;2.58;;
9597;SDS011;4837;50.890;4.724;2023-03-31T06:43:46;10.63;;;3.22;;
9597;SDS011;4837;50.890;4.724;2023-03-31T06:46:12;9.75;;;2.70;;
9597;SDS011;4837;50.890;4.724;2023-03-31T06:48:38;10.05;;;2.60;;
9597;SDS011;4837;50.890;4.724;2023-03-31T06:51:05;15.68;;;3.45;;
9597;SDS011;4837;50.890;4.724;2023-03-31T06:53:32;12.90;;;3.80;;
9597;SDS011;4837;50.890;4.724;2023-03-31T06:55:58;11.82;;;3.55;;
9597;SDS011;4837;50.890;4.724;2023-03-31T06:58:25;12.52;;;3.22;;
9597;SDS011;4837;50.890;4.724;2023-03-31T07:00:51;14.73;;;2.80;;
9597;SDS011;4837;50.890;4.724;2023-03-31T07:03:17;13.07;;;3.33;;
9597;SDS011;4837;50.890;4.724;2023-03-31T07:05:47;10.52;;;2.78;;
9597;SDS011;4837;50.890;4.724;2023-03-31T07:08:13;11.95;;;2.92;;
9597;SDS011;4837;50.890;4.724;2023-03-31T07:10:42;12.32;;;3.25;;
9597;SDS011;4837;50.890;4.724;2023-03-31T07:13:11;13.32;;;3.30;;
9597;SDS011;4837;50.890;4.724;2023-03-31T07:15:37;10.30;;;2.78;;
9597;SDS011;4837;50.890;4.724;2023-03-31T07:18:04;15.43;;;3.45;;
9597;SDS011;4837;50.890;4.724;2023-03-31T07:20:30;11.10;;;3.08;;
9597;SDS011;4837;50.890;4.724;2023-03-31T07:22:57;13.48;;;3.83;;
9597;SDS011;4837;50.890;4.724;2023-03-31T07:25:23;13.13;;;2.92;;
9597;SDS011;4837;50.890;4.724;2023-03-31T07:27:49;13.18;;;3.80;;
9597;SDS011;4837;50.890;4.724;2023-03-31T07:30:17;12.77;;;3.08;;
9597;SDS011;4837;50.890;4.724;2023-03-31T07:32:47;12.25;;;3.25;;
9597;SDS011;4837;50.890;4.724;2023-03-31T07:35:13;11.57;;;3.30;;
9597;SDS011;4837;50.890;4.724;2023-03-31T07:37:41;12.90;;;3.03;;
9597;SDS011;4837;50.890;4.724;2023-03-31T07:40:08;14.15;;;3.53;;
9597;SDS011;4837;50.890;4.724;2023-03-31T07:42:35;15.35;;;3.58;;
9597;SDS011;4837;50.890;4.724;2023-03-31T07:45:01;11.80;;;3.30;;
9597;SDS011;4837;50.890;4.724;2023-03-31T07:47:30;12.32;;;3.28;;
9597;SDS011;4837;50.890;4.724;2023-03-31T07:49:56;12.52;;;3.20;;
9597;SDS011;4837;50.890;4.724;2023-03-31T07:52:22;8.35;;;2.75;;
9597;SDS011;4837;50.890;4.724;2023-03-31T07:54:48;15.43;;;3.28;;
9597;SDS011;4837;50.890;4.724;2023-03-31T07:57:16;11.55;;;3.22;;
9597;SDS011;4837;50.890;4.724;2023-03-31T07:59:43;16.40;;;3.25;;
9597;SDS011;4837;50.890;4.724;2023-03-31T08:02:13;12.95;;;2.83;;
9597;SDS011;4837;50.890;4.724;2023-03-31T08:04:40;13.13;;;3.60;;
9597;SDS011;4837;50.890;4.724;2023-03-31T08:07:06;15.30;;;3.50;;
9597;SDS011;4837;50.890;4.724;2023-03-31T08:09:33;11.13;;;3.50;;
9597;SDS011;4837;50.890;4.724;2023-03-31T08:11:59;17.92;;;3.90;;
9597;SDS011;4837;50.890;4.724;2023-03-31T08:14:25;15.52;;;4.13;;
9597;SDS011;4837;50.890;4.724;2023-03-31T08:16:51;15.95;;;2.97;;
9597;SDS011;4837;50.890;4.724;2023-03-31T08:19:19;13.18;;;3.33;;
9597;SDS011;4837;50.890;4.724;2023-03-31T08:21:46;12.05;;;3.13;;
9597;SDS011;4837;50.890;4.724;2023-03-31T08:24:12;13.93;;;3.40;;
9597;SDS011;4837;50.890;4.724;2023-03-31T08:26:39;13.02;;;2.97;;
9597;SDS011;4837;50.890;4.724;2023-03-31T08:29:05;12.88;;;2.88;;
9597;SDS011;4837;50.890;4.724;2023-03-31T08:31:32;14.80;;;3.40;;
9597;SDS011;4837;50.890;4.724;2023-03-31T08:33:58;15.48;;;3.63;;
9597;SDS011;4837;50.890;4.724;2023-03-31T08:36:25;12.05;;;3.40;;
9597;SDS011;4837;50.890;4.724;2023-03-31T08:38:51;15.65;;;3.75;;
9597;SDS011;4837;50.890;4.724;2023-03-31T08:44:10;14.20;;;3.22;;
9597;SDS011;4837;50.890;4.724;2023-03-31T08:46:39;13.65;;;3.13;;
9597;SDS011;4837;50.890;4.724;2023-03-31T08:49:06;14.38;;;3.05;;
9597;SDS011;4837;50.890;4.724;2023-03-31T08:51:34;12.00;;;3.17;;
9597;SDS011;4837;50.890;4.724;2023-03-31T08:54:04;11.25;;;3.08;;
9597;SDS011;4837;50.890;4.724;2023-03-31T08:56:35;12.63;;;3.42;;
9597;SDS011;4837;50.890;4.724;2023-03-31T08:59:04;10.18;;;2.75;;
9597;SDS011;4837;50.890;4.724;2023-03-31T09:11:52;9.77;;;2.50;;
9597;SDS011;4837;50.890;4.724;2023-03-31T09:16:53;10.55;;;2.85;;
9597;SDS011;4837;50.890;4.724;2023-03-31T09:19:31;8.60;;;2.30;;
9597;SDS011;4837;50.890;4.724;2023-03-31T09:21:58;13.15;;;2.97;;
9597;SDS011;4837;50.890;4.724;2023-03-31T09:26:53;12.57;;;3.67;;
9597;SDS011;4837;50.890;4.724;2023-03-31T09:29:27;11.02;;;2.83;;
9597;SDS011;4837;50.890;4.724;2023-03-31T09:32:17;12.18;;;3.22;;
9597;SDS011;4837;50.890;4.724;2023-03-31T09:34:42;13.55;;;3.30;;
9597;SDS011;4837;50.890;4.724;2023-03-31T09:37:08;7.60;;;2.80;;
9597;SDS011;4837;50.890;4.724;2023-03-31T09:39:35;13.00;;;3.60;;
9597;SDS011;4837;50.890;4.724;2023-03-31T09:42:02;11.43;;;2.90;;
9597;SDS011;4837;50.890;4.724;2023-03-31T09:44:38;10.90;;;3.00;;
9597;SDS011;4837;50.890;4.724;2023-03-31T09:47:05;13.25;;;3.00;;
9597;SDS011;4837;50.890;4.724;2023-03-31T09:49:33;13.68;;;3.55;;
9597;SDS011;4837;50.890;4.724;2023-03-31T09:52:05;16.60;;;4.00;;
9597;SDS011;4837;50.890;4.724;2023-03-31T09:54:34;12.23;;;3.03;;
9597;SDS011;4837;50.890;4.724;2023-03-31T09:57:01;12.65;;;3.15;;
9597;SDS011;4837;50.890;4.724;2023-03-31T09:59:34;13.63;;;3.35;;
9597;SDS011;4837;50.890;4.724;2023-03-31T10:02:05;11.23;;;3.63;;
9597;SDS011;4837;50.890;4.724;2023-03-31T10:04:44;16.48;;;3.97;;
9597;SDS011;4837;50.890;4.724;2023-03-31T10:07:10;15.50;;;3.72;;
9597;SDS011;4837;50.890;4.724;2023-03-31T10:09:37;14.35;;;3.50;;
9597;SDS011;4837;50.890;4.724;2023-03-31T10:12:08;15.90;;;3.53;;
9597;SDS011;4837;50.890;4.724;2023-03-31T10:14:43;15.70;;;3.67;;
9597;SDS011;4837;50.890;4.724;2023-03-31T10:17:13;11.30;;;3.40;;
9597;SDS011;4837;50.890;4.724;2023-03-31T10:19:42;14.40;;;3.45;;
9597;SDS011;4837;50.890;4.724;2023-03-31T10:22:16;14.60;;;3.25;;
9597;SDS011;4837;50.890;4.724;2023-03-31T10:24:51;12.98;;;3.25;;
9597;SDS011;4837;50.890;4.724;2023-03-31T10:29:46;13.85;;;3.70;;
9597;SDS011;4837;50.890;4.724;2023-03-31T10:32:26;15.13;;;3.40;;
9597;SDS011;4837;50.890;4.724;2023-03-31T10:34:53;11.45;;;3.30;;
9597;SDS011;4837;50.890;4.724;2023-03-31T10:37:21;19.33;;;4.03;;
9597;SDS011;4837;50.890;4.724;2023-03-31T10:39:55;10.20;;;2.97;;
9597;SDS011;4837;50.890;4.724;2023-03-31T10:42:21;13.52;;;3.38;;
9597;SDS011;4837;50.890;4.724;2023-03-31T10:44:48;11.95;;;3.10;;
9597;SDS011;4837;50.890;4.724;2023-03-31T10:47:16;12.48;;;3.65;;
9597;SDS011;4837;50.890;4.724;2023-03-31T10:49:42;12.35;;;3.53;;
9597;SDS011;4837;50.890;4.724;2023-03-31T10:52:17;12.90;;;3.42;;
9597;SDS011;4837;50.890;4.724;2023-03-31T10:54:48;13.77;;;3.25;;
9597;SDS011;4837;50.890;4.724;2023-03-31T10:57:14;12.27;;;3.15;;
9597;SDS011;4837;50.890;4.724;2023-03-31T10:59:56;14.68;;;3.28;;
9597;SDS011;4837;50.890;4.724;2023-03-31T11:07:27;15.27;;;3.30;;
9597;SDS011;4837;50.890;4.724;2023-03-31T11:12:33;11.10;;;3.42;;
9597;SDS011;4837;50.890;4.724;2023-03-31T11:20:02;12.10;;;3.70;;
9597;SDS011;4837;50.890;4.724;2023-03-31T11:22:36;14.52;;;3.75;;
9597;SDS011;4837;50.890;4.724;2023-03-31T11:27:59;16.40;;;3.42;;
9597;SDS011;4837;50.890;4.724;2023-03-31T11:30:34;13.93;;;2.92;;
9597;SDS011;4837;50.890;4.724;2023-03-31T11:33:15;9.23;;;2.92;;
9597;SDS011;4837;50.890;4.724;2023-03-31T11:35:59;16.02;;;3.00;;
9597;SDS011;4837;50.890;4.724;2023-03-31T11:38:36;9.57;;;2.78;;
9597;SDS011;4837;50.890;4.724;2023-03-31T11:41:17;11.20;;;2.70;;
9597;SDS011;4837;50.890;4.724;2023-03-31T11:43:49;8.27;;;2.33;;
9597;SDS011;4837;50.890;4.724;2023-03-31T11:46:23;10.88;;;3.17;;
9597;SDS011;4837;50.890;4.724;2023-03-31T11:48:58;11.88;;;2.85;;
9597;SDS011;4837;50.890;4.724;2023-03-31T11:51:27;10.00;;;2.33;;
9597;SDS011;4837;50.890;4.724;2023-03-31T11:53:55;14.20;;;2.70;;
9597;SDS011;4837;50.890;4.724;2023-03-31T11:56:23;7.50;;;1.95;;
9597;SDS011;4837;50.890;4.724;2023-03-31T11:58:51;9.15;;;2.58;;
9597;SDS011;4837;50.890;4.724;2023-03-31T12:02:03;9.85;;;2.92;;
9597;SDS011;4837;50.890;4.724;2023-03-31T12:04:52;7.45;;;2.22;;
9597;SDS011;4837;50.890;4.724;2023-03-31T12:12:18;8.63;;;2.17;;
9597;SDS011;4837;50.890;4.724;2023-03-31T12:14:50;7.85;;;2.20;;
9597;SDS011;4837;50.890;4.724;2023-03-31T12:17:19;10.55;;;2.45;;
9597;SDS011;4837;50.890;4.724;2023-03-31T12:19:55;9.02;;;2.97;;
9597;SDS011;4837;50.890;4.724;2023-03-31T12:22:23;10.93;;;2.55;;
9597;SDS011;4837;50.890;4.724;2023-03-31T12:24:50;8.23;;;2.33;;
9597;SDS011;4837;50.890;4.724;2023-03-31T12:32:29;13.35;;;2.50;;
9597;SDS011;4837;50.890;4.724;2023-03-31T12:52:54;7.78;;;2.17;;
9597;SDS011;4837;50.890;4.724;2023-03-31T12:57:48;8.48;;;2.15;;
9597;SDS011;4837;50.890;4.724;2023-03-31T13:00:22;7.97;;;1.90;;
9597;SDS011;4837;50.890;4.724;2023-03-31T13:02:49;6.38;;;1.83;;
9597;SDS011;4837;50.890;4.724;2023-03-31T13:08:00;5.97;;;1.80;;
9597;SDS011;4837;50.890;4.724;2023-03-31T13:10:27;7.55;;;2.00;;
9597;SDS011;4837;50.890;4.724;2023-03-31T13:15:23;10.38;;;1.98;;
9597;SDS011;4837;50.890;4.724;2023-03-31T13:17:57;4.05;;;1.50;;
9597;SDS011;4837;50.890;4.724;2023-03-31T13:22:53;6.43;;;2.08;;
9597;SDS011;4837;50.890;4.724;2023-03-31T13:28:13;5.05;;;1.58;;
9597;SDS011;4837;50.890;4.724;2023-03-31T13:33:06;3.95;;;1.35;;
9597;SDS011;4837;50.890;4.724;2023-03-31T13:35:34;5.45;;;1.50;;
9597;SDS011;4837;50.890;4.724;2023-03-31T13:38:08;3.80;;;1.55;;
9597;SDS011;4837;50.890;4.724;2023-03-31T13:40:50;6.03;;;1.30;;
9597;SDS011;4837;50.890;4.724;2023-03-31T13:46:15;5.43;;;1.40;;
9597;SDS011;4837;50.890;4.724;2023-03-31T13:48:49;5.97;;;1.60;;
9597;SDS011;4837;50.890;4.724;2023-03-31T13:59:18;3.78;;;1.33;;
9597;SDS011;4837;50.890;4.724;2023-03-31T14:02:04;4.78;;;1.60;;
9597;SDS011;4837;50.890;4.724;2023-03-31T14:07:15;3.35;;;1.38;;
9597;SDS011;4837;50.890;4.724;2023-03-31T14:09:43;5.95;;;1.65;;
9597;SDS011;4837;50.890;4.724;2023-03-31T14:12:33;5.15;;;1.63;;
9597;SDS011;4837;50.890;4.724;2023-03-31T14:15:00;6.03;;;1.88;;
9597;SDS011;4837;50.890;4.724;2023-03-31T14:17:45;4.85;;;2.10;;
9597;SDS011;4837;50.890;4.724;2023-03-31T14:25:25;2.90;;;1.17;;
9597;SDS011;4837;50.890;4.724;2023-03-31T14:30:42;3.00;;;1.08;;
9597;SDS011;4837;50.890;4.724;2023-03-31T14:35:50;2.97;;;1.23;;
9597;SDS011;4837;50.890;4.724;2023-03-31T14:38:19;3.47;;;1.25;;
9597;SDS011;4837;50.890;4.724;2023-03-31T14:40:49;2.08;;;1.00;;
9597;SDS011;4837;50.890;4.724;2023-03-31T14:43:25;3.05;;;1.10;;
9597;SDS011;4837;50.890;4.724;2023-03-31T14:46:05;4.47;;;0.82;;
9597;SDS011;4837;50.890;4.724;2023-03-31T14:48:33;2.83;;;0.93;;
9597;SDS011;4837;50.890;4.724;2023-03-31T14:51:01;1.67;;;0.80;;
9597;SDS011;4837;50.890;4.724;2023-03-31T14:53:27;3.28;;;0.93;;
9597;SDS011;4837;50.890;4.724;2023-03-31T14:55:56;2.30;;;0.90;;
9597;SDS011;4837;50.890;4.724;2023-03-31T14:58:35;1.77;;;0.85;;
9597;SDS011;4837;50.890;4.724;2023-03-31T15:01:02;2.53;;;1.00;;
9597;SDS011;4837;50.890;4.724;2023-03-31T15:03:29;1.52;;;0.80;;
9597;SDS011;4837;50.890;4.724;2023-03-31T15:05:56;1.75;;;0.70;;
9597;SDS011;4837;50.890;4.724;2023-03-31T15:08:23;1.83;;;0.90;;
9597;SDS011;4837;50.890;4.724;2023-03-31T15:10:51;1.60;;;0.73;;
9597;SDS011;4837;50.890;4.724;2023-03-31T15:13:24;1.80;;;1.13;;
9597;SDS011;4837;50.890;4.724;2023-03-31T15:15:52;2.45;;;0.70;;
9597;SDS011;4837;50.890;4.724;2023-03-31T15:18:18;2.38;;;0.88;;
9597;SDS011;4837;50.890;4.724;2023-03-31T15:20:45;2.03;;;1.20;;
9597;SDS011;4837;50.890;4.724;2023-03-31T15:23:29;2.53;;;0.82;;
9597;SDS011;4837;50.890;4.724;2023-03-31T15:25:57;3.25;;;1.27;;
9597;SDS011;4837;50.890;4.724;2023-03-31T15:28:24;1.58;;;0.88;;
9597;SDS011;4837;50.890;4.724;2023-03-31T15:30:51;0.77;;;0.63;;
9597;SDS011;4837;50.890;4.724;2023-03-31T15:33:19;3.47;;;1.00;;
9597;SDS011;4837;50.890;4.724;2023-03-31T15:35:46;0.98;;;0.70;;
9597;SDS011;4837;50.890;4.724;2023-03-31T15:38:13;1.02;;;0.70;;
9597;SDS011;4837;50.890;4.724;2023-03-31T15:40:42;1.88;;;0.80;;
9597;SDS011;4837;50.890;4.724;2023-03-31T15:43:13;2.80;;;0.88;;
9597;SDS011;4837;50.890;4.724;2023-03-31T15:45:50;2.83;;;0.93;;
9597;SDS011;4837;50.890;4.724;2023-03-31T15:48:18;2.40;;;0.98;;
9597;SDS011;4837;50.890;4.724;2023-03-31T15:50:46;2.05;;;1.00;;
9597;SDS011;4837;50.890;4.724;2023-03-31T15:53:28;2.90;;;1.20;;
9597;SDS011;4837;50.890;4.724;2023-03-31T15:55:56;2.63;;;1.02;;
9597;SDS011;4837;50.890;4.724;2023-03-31T15:58:44;4.00;;;1.27;;
9597;SDS011;4837;50.890;4.724;2023-03-31T16:01:10;1.48;;;0.88;;
9597;SDS011;4837;50.890;4.724;2023-03-31T16:03:39;2.28;;;1.10;;
9597;SDS011;4837;50.890;4.724;2023-03-31T16:06:23;2.78;;;1.20;;
9597;SDS011;4837;50.890;4.724;2023-03-31T16:08:52;3.38;;;1.20;;
9597;SDS011;4837;50.890;4.724;2023-03-31T16:11:23;2.38;;;1.20;;
9597;SDS011;4837;50.890;4.724;2023-03-31T16:13:53;4.07;;;1.40;;
9597;SDS011;4837;50.890;4.724;2023-03-31T16:16:21;4.45;;;1.80;;
9597;SDS011;4837;50.890;4.724;2023-03-31T16:18:53;2.65;;;1.23;;
9597;SDS011;4837;50.890;4.724;2023-03-31T16:21:27;4.47;;;1.60;;
9597;SDS011;4837;50.890;4.724;2023-03-31T16:23:56;3.40;;;1.48;;
9597;SDS011;4837;50.890;4.724;2023-03-31T16:26:23;4.30;;;1.42;;
9597;SDS011;4837;50.890;4.724;2023-03-31T16:28:51;3.47;;;1.08;;
9597;SDS011;4837;50.890;4.724;2023-03-31T16:31:28;4.25;;;1.73;;
9597;SDS011;4837;50.890;4.724;2023-03-31T16:33:55;5.68;;;1.42;;
9597;SDS011;4837;50.890;4.724;2023-03-31T16:36:21;4.22;;;1.67;;
9597;SDS011;4837;50.890;4.724;2023-03-31T16:38:50;4.70;;;1.45;;
9597;SDS011;4837;50.890;4.724;2023-03-31T16:41:20;4.18;;;1.30;;
9597;SDS011;4837;50.890;4.724;2023-03-31T16:43:51;5.28;;;1.60;;
9597;SDS011;4837;50.890;4.724;2023-03-31T16:46:18;5.65;;;1.50;;
9597;SDS011;4837;50.890;4.724;2023-03-31T16:48:45;4.00;;;1.35;;
9597;SDS011;4837;50.890;4.724;2023-03-31T16:51:11;6.13;;;1.50;;
9597;SDS011;4837;50.890;4.724;2023-03-31T16:53:37;5.88;;;1.48;;
9597;SDS011;4837;50.890;4.724;2023-03-31T16:56:04;3.78;;;1.40;;
9597;SDS011;4837;50.890;4.724;2023-03-31T16:58:35;5.40;;;1.48;;
9597;SDS011;4837;50.890;4.724;2023-03-31T17:01:02;4.10;;;1.45;;
9597;SDS011;4837;50.890;4.724;2023-03-31T17:03:28;4.90;;;1.85;;
9597;SDS011;4837;50.890;4.724;2023-03-31T17:05:55;4.68;;;1.70;;
9597;SDS011;4837;50.890;4.724;2023-03-31T17:08:22;6.43;;;1.38;;
9597;SDS011;4837;50.890;4.724;2023-03-31T17:10:51;4.40;;;1.40;;
9597;SDS011;4837;50.890;4.724;2023-03-31T17:13:17;3.55;;;1.27;;
9597;SDS011;4837;50.890;4.724;2023-03-31T17:15:43;5.50;;;1.65;;
9597;SDS011;4837;50.890;4.724;2023-03-31T17:18:10;5.95;;;1.40;;
9597;SDS011;4837;50.890;4.724;2023-03-31T17:20:36;5.70;;;1.33;;
9597;SDS011;4837;50.890;4.724;2023-03-31T17:23:03;2.53;;;1.30;;
9597;SDS011;4837;50.890;4.724;2023-03-31T17:25:29;5.17;;;1.40;;
9597;SDS011;4837;50.890;4.724;2023-03-31T17:27:55;3.90;;;1.10;;
9597;SDS011;4837;50.890;4.724;2023-03-31T17:30:24;5.03;;;1.55;;
9597;SDS011;4837;50.890;4.724;2023-03-31T17:32:51;6.10;;;1.40;;
9597;SDS011;4837;50.890;4.724;2023-03-31T17:35:18;3.00;;;1.40;;
9597;SDS011;4837;50.890;4.724;2023-03-31T17:37:46;5.53;;;1.52;;
9597;SDS011;4837;50.890;4.724;2023-03-31T17:40:14;5.60;;;1.50;;
9597;SDS011;4837;50.890;4.724;2023-03-31T17:42:41;4.85;;;1.52;;
9597;SDS011;4837;50.890;4.724;2023-03-31T17:45:08;5.25;;;1.70;;
9597;SDS011;4837;50.890;4.724;2023-03-31T17:47:36;6.45;;;1.80;;
9597;SDS011;4837;50.890;4.724;2023-03-31T17:50:02;3.58;;;1.60;;